Time;durP1;ratioP1;P1;durP2;ratioP2;P2;SDS_P1;SDS_P2;PMS_P1;PMS_P2;Temp;Humidity;BMP_temperature;BMP_pressure;BME280_temperature;BME280_humidity;BME280_pressure;Samples;Min_cycle;Max_cycle;Signal;HPM_P1;HPM_P2
2022/11/16 00:02:05;;;;;;;1999.90;999.90;;;10.70;99.90;;;;;;4990072;28;20867;-70
2022/11/16 00:04:32;;;;;;;1999.90;999.90;;;10.70;99.90;;;;;;4990184;28;20567;-69
2022/11/16 00:07:01;;;;;;;1999.90;999.90;;;10.70;99.90;;;;;;4989922;28;20546;-72
2022/11/16 00:09:30;;;;;;;1999.90;999.90;;;10.70;99.90;;;;;;4990237;28;20497;-69
2022/11/16 00:12:01;;;;;;;1999.90;999.90;;;10.70;99.90;;;;;;4989454;28;20946;-70
2022/11/16 00:14:30;;;;;;;1999.90;999.90;;;10.80;99.90;;;;;;4990280;28;20470;-73
2022/11/16 00:16:58;;;;;;;1999.90;999.90;;;10.80;99.90;;;;;;4989907;28;20446;-69
2022/11/16 00:19:27;;;;;;;1999.90;999.90;;;10.70;99.90;;;;;;4992946;28;20453;-70
2022/11/16 00:21:54;;;;;;;1999.90;999.90;;;10.70;99.90;;;;;;4993603;28;20453;-69
2022/11/16 00:24:23;;;;;;;1999.90;999.90;;;10.70;99.90;;;;;;4994342;28;20487;-71
2022/11/16 00:26:50;;;;;;;1999.90;999.90;;;10.70;99.90;;;;;;4994717;28;20957;-69
2022/11/16 00:29:19;;;;;;;1999.90;999.90;;;10.70;99.90;;;;;;4993983;28;20458;-72
2022/11/16 00:31:46;;;;;;;1999.90;999.90;;;10.70;99.90;;;;;;4994169;28;20450;-69
2022/11/16 00:34:13;;;;;;;1999.90;999.90;;;10.70;99.90;;;;;;4993683;28;20477;-70
2022/11/16 00:36:42;;;;;;;1999.90;999.90;;;10.80;99.90;;;;;;4994089;28;20964;-70
2022/11/16 00:39:11;;;;;;;1999.90;999.90;;;10.80;99.90;;;;;;4993603;28;20454;-69
2022/11/16 00:41:38;;;;;;;1999.90;999.90;;;10.80;99.90;;;;;;4993716;28;20679;-69
2022/11/16 00:44:05;;;;;;;1999.90;999.90;;;10.80;99.90;;;;;;4993360;28;20476;-73
2022/11/16 00:46:32;;;;;;;1999.90;999.90;;;10.70;99.90;;;;;;4993453;28;20960;-70
2022/11/16 00:48:59;;;;;;;1999.90;999.90;;;10.70;99.90;;;;;;4993476;28;20453;-70
2022/11/16 00:51:25;;;;;;;1999.90;999.90;;;10.70;99.90;;;;;;4993260;28;20458;-70
2022/11/16 00:53:54;;;;;;;1999.90;999.90;;;10.70;99.90;;;;;;4993361;28;20475;-70
2022/11/16 00:56:20;;;;;;;1999.90;999.90;;;10.70;99.90;;;;;;4993214;28;20451;-70
2022/11/16 00:58:47;;;;;;;1999.90;999.90;;;10.60;99.90;;;;;;4993560;28;20450;-69
2022/11/16 01:01:14;;;;;;;1999.90;999.90;;;10.60;99.90;;;;;;4992843;28;20439;-73
2022/11/16 01:03:41;;;;;;;1999.90;999.90;;;10.60;99.90;;;;;;4993132;28;20474;-70
2022/11/16 01:06:10;;;;;;;1999.90;999.90;;;10.60;99.90;;;;;;4993469;28;20490;-69
2022/11/16 01:08:38;;;;;;;1999.90;999.90;;;10.60;99.90;;;;;;4993060;28;20451;-71
2022/11/16 01:13:52;;;;;;;1999.90;999.90;;;10.60;99.90;;;;;;4992665;28;20453;-71
2022/11/16 01:16:21;;;;;;;1999.90;999.90;;;10.50;99.90;;;;;;4993188;28;21063;-74
2022/11/16 01:18:49;;;;;;;1999.90;999.90;;;10.50;99.90;;;;;;4992920;28;20465;-70
2022/11/16 01:21:16;;;;;;;1999.90;999.90;;;10.40;99.90;;;;;;4993272;28;20517;-70
2022/11/16 01:23:43;;;;;;;1999.90;999.90;;;10.50;99.90;;;;;;4992305;28;20466;-72
2022/11/16 01:26:12;;;;;;;1999.90;999.90;;;10.50;99.90;;;;;;4993084;28;20482;-70
2022/11/16 01:28:38;;;;;;;1999.90;999.90;;;10.50;99.90;;;;;;4993140;28;20461;-69
2022/11/16 01:31:06;;;;;;;1999.90;999.90;;;10.50;99.90;;;;;;4991712;28;20461;-70
2022/11/16 01:33:33;;;;;;;1999.90;999.90;;;10.50;99.90;;;;;;4992916;28;20840;-70
2022/11/16 01:35:59;;;;;;;1999.90;999.90;;;10.50;99.90;;;;;;4992655;28;20485;-69
2022/11/16 01:38:26;;;;;;;1999.90;999.90;;;10.50;99.90;;;;;;4992957;28;20848;-70
2022/11/16 01:40:53;;;;;;;1999.90;999.90;;;10.40;99.90;;;;;;4992085;28;20957;-70
2022/11/16 01:43:24;;;;;;;1999.90;999.90;;;10.40;99.90;;;;;;4992469;28;21310;-73
2022/11/16 01:45:51;;;;;;;1999.90;999.90;;;10.40;99.90;;;;;;4992386;28;20509;-71
2022/11/16 01:48:24;;;;;;;1999.90;999.90;;;10.40;99.90;;;;;;4992653;28;20454;-72
2022/11/16 01:50:51;;;;;;;1999.90;999.90;;;10.40;99.90;;;;;;4992428;28;20972;-72
2022/11/16 01:53:18;;;;;;;1999.90;999.90;;;10.50;99.90;;;;;;4991680;28;20478;-72
2022/11/16 01:55:47;;;;;;;1999.90;999.90;;;10.50;99.90;;;;;;4992283;28;20447;-71
2022/11/16 01:58:19;;;;;;;1999.90;999.90;;;10.50;99.90;;;;;;4992074;28;20468;-70
2022/11/16 02:00:48;;;;;;;1999.90;999.90;;;10.50;99.90;;;;;;4992312;28;20461;-70
2022/11/16 02:03:17;;;;;;;1999.90;999.90;;;10.50;99.90;;;;;;4991661;28;20571;-71
2022/11/16 02:05:56;;;;;;;1999.90;999.90;;;10.40;99.90;;;;;;4992238;28;20506;-73
2022/11/16 02:11:45;;;;;;;1999.90;999.90;;;10.40;99.90;;;;;;4992128;28;20435;-71
2022/11/16 02:14:25;;;;;;;1999.90;999.90;;;10.40;99.90;;;;;;4991685;28;20475;-72
2022/11/16 02:16:58;;;;;;;1999.90;999.90;;;10.40;99.90;;;;;;4992367;28;20820;-70
2022/11/16 02:19:51;;;;;;;1999.90;999.90;;;10.40;99.90;;;;;;4991918;28;20454;-74
2022/11/16 02:22:32;;;;;;;1999.90;999.90;;;10.30;99.90;;;;;;4991771;28;20486;-72
2022/11/16 02:25:06;;;;;;;1999.90;999.90;;;10.30;99.90;;;;;;4991392;28;20486;-73
2022/11/16 02:28:10;;;;;;;1999.90;999.90;;;10.30;99.90;;;;;;4991921;28;20446;-71
2022/11/16 02:30:42;;;;;;;1999.90;999.90;;;10.30;99.90;;;;;;4960713;28;20455;-70
2022/11/16 02:33:12;;;;;;;1999.90;999.90;;;10.30;99.90;;;;;;4991329;28;20964;-73
2022/11/16 02:35:42;;;;;;;1999.90;999.90;;;10.30;99.90;;;;;;4991710;28;20447;-71
2022/11/16 02:38:14;;;;;;;1999.90;999.90;;;10.30;99.90;;;;;;4991332;28;20447;-74
2022/11/16 02:40:46;;;;;;;1999.90;999.90;;;10.30;99.90;;;;;;4991636;28;20459;-74
2022/11/16 02:43:20;;;;;;;1999.90;999.90;;;10.30;99.90;;;;;;4990940;28;20467;-71
2022/11/16 02:45:51;;;;;;;1999.90;999.90;;;10.30;99.90;;;;;;4991431;28;20544;-70
2022/11/16 02:48:22;;;;;;;1999.90;999.90;;;10.30;99.90;;;;;;4991267;28;20446;-70
2022/11/16 02:50:51;;;;;;;1999.90;999.90;;;10.40;99.90;;;;;;4991209;28;20937;-70
2022/11/16 02:53:21;;;;;;;1999.90;999.90;;;10.40;99.90;;;;;;4990447;28;20479;-71
2022/11/16 02:55:48;;;;;;;1999.90;999.90;;;10.30;99.90;;;;;;4991892;28;20859;-70
2022/11/16 02:58:20;;;;;;;1999.90;999.90;;;10.30;99.90;;;;;;4991205;28;21094;-70
2022/11/16 03:00:54;;;;;;;1999.90;999.90;;;10.30;99.90;;;;;;4990741;28;20451;-71
2022/11/16 03:03:29;;;;;;;1999.90;999.90;;;10.30;99.90;;;;;;4991102;28;20490;-72
2022/11/16 03:06:02;;;;;;;1999.90;999.90;;;10.30;99.90;;;;;;4990609;28;20887;-72
2022/11/16 03:08:32;;;;;;;1999.90;999.90;;;10.30;99.90;;;;;;4991060;28;20450;-69
2022/11/16 03:13:48;;;;;;;1999.90;999.90;;;10.40;99.90;;;;;;4990971;28;20521;-69
2022/11/16 03:16:20;;;;;;;1999.90;999.90;;;10.40;99.90;;;;;;4990506;28;20451;-69
2022/11/16 03:18:50;;;;;;;1999.90;999.90;;;10.40;99.90;;;;;;4990954;28;20460;-70
2022/11/16 03:21:24;;;;;;;1999.90;999.90;;;10.40;99.90;;;;;;4990483;28;20840;-71
2022/11/16 03:23:51;;;;;;;1999.90;999.90;;;10.40;99.90;;;;;;4990785;28;20462;-69
2022/11/16 03:26:23;;;;;;;1999.90;999.90;;;10.30;99.90;;;;;;4990867;28;20487;-70
2022/11/16 03:28:55;;;;;;;1999.90;999.90;;;10.30;99.90;;;;;;4990591;28;20457;-69
2022/11/16 03:31:28;;;;;;;1999.90;999.90;;;10.40;99.90;;;;;;4990647;28;20450;-69
2022/11/16 03:33:58;;;;;;;1999.90;999.90;;;10.40;99.90;;;;;;4990462;28;20527;-75
2022/11/16 03:36:29;;;;;;;1999.90;999.90;;;10.40;99.90;;;;;;4990951;28;20442;-69
2022/11/16 03:39:00;;;;;;;1999.90;999.90;;;10.40;99.90;;;;;;4990343;28;20465;-70
2022/11/16 03:41:29;;;;;;;1999.90;999.90;;;10.40;99.90;;;;;;4990557;28;20528;-74
2022/11/16 03:43:57;;;;;;;1999.90;999.90;;;10.40;99.90;;;;;;4989892;28;20478;-70
2022/11/16 03:46:25;;;;;;;1999.90;999.90;;;10.40;99.90;;;;;;4990739;28;20482;-70
2022/11/16 03:48:57;;;;;;;1999.90;999.90;;;10.40;99.90;;;;;;4990649;28;20450;-70
2022/11/16 03:51:24;;;;;;;1999.90;999.90;;;10.40;99.90;;;;;;4990093;28;20451;-70
2022/11/16 03:53:52;;;;;;;1999.90;999.90;;;10.40;99.90;;;;;;4989429;28;21013;-72
2022/11/16 03:56:19;;;;;;;1999.90;999.90;;;10.40;99.90;;;;;;4989882;28;20825;-70
2022/11/16 03:58:46;;;;;;;1999.90;999.90;;;10.40;99.90;;;;;;4990616;28;20450;-73
2022/11/16 04:01:12;;;;;;;1999.90;999.90;;;10.40;99.90;;;;;;4990152;28;20457;-70
2022/11/16 04:03:40;;;;;;;1999.90;999.90;;;10.40;99.90;;;;;;4990305;28;20470;-69
2022/11/16 04:25:35;;;;;;;1999.90;999.90;;;10.50;99.90;;;;;;4990040;28;20995;-70
2022/11/16 04:28:15;;;;;;;1999.90;999.90;;;10.50;99.90;;;;;;4990321;28;20548;-72
2022/11/16 04:39:13;;;;;;;1999.90;999.90;;;10.60;99.90;;;;;;4983209;28;20442;-72
2022/11/16 04:47:05;;;;;;;1999.90;999.90;;;10.60;99.90;;;;;;4990056;28;20442;-71
2022/11/16 04:47:10;;;;;;;1999.90;999.90;;;10.60;99.90;;;;;;4989430;28;21156;-69
2022/11/16 04:49:37;;;;;;;1999.90;999.90;;;10.60;99.90;;;;;;4990299;28;20438;-71
2022/11/16 04:52:06;;;;;;;1999.90;999.90;;;10.50;99.90;;;;;;4989498;28;20678;-71
2022/11/16 04:54:32;;;;;;;1999.90;999.90;;;10.60;99.90;;;;;;4990548;28;20470;-70
2022/11/16 04:56:59;;;;;;;1999.90;999.90;;;10.60;99.90;;;;;;4989869;28;20442;-70
2022/11/16 04:59:26;;;;;;;1999.90;999.90;;;10.50;99.90;;;;;;4990128;28;20937;-67
2022/11/16 05:02:07;;;;;;;1999.90;999.90;;;10.60;99.90;;;;;;4989740;28;20450;-68
2022/11/16 05:04:34;;;;;;;1999.90;999.90;;;10.50;99.90;;;;;;4991440;28;20506;-69
2022/11/16 05:07:01;;;;;;;1999.90;999.90;;;10.60;99.90;;;;;;4993518;28;20489;-72
2022/11/16 05:09:29;;;;;;;1999.90;999.90;;;10.60;99.90;;;;;;4992971;28;20500;-69
2022/11/16 05:11:56;;;;;;;1999.90;999.90;;;10.60;99.90;;;;;;4992934;28;20960;-68
2022/11/16 05:14:23;;;;;;;1999.90;999.90;;;10.60;99.90;;;;;;4992750;28;20463;-71
2022/11/16 05:16:49;;;;;;;1999.90;999.90;;;10.60;99.90;;;;;;4993255;28;20971;-70
2022/11/16 05:22:01;;;;;;;1999.90;999.90;;;10.60;99.90;;;;;;4992918;28;20438;-70
2022/11/16 05:24:35;;;;;;;1999.90;999.90;;;10.60;99.90;;;;;;4992871;28;20509;-73
2022/11/16 05:27:02;;;;;;;1999.90;999.90;;;10.60;99.90;;;;;;4993362;28;20482;-72
2022/11/16 05:29:29;;;;;;;1999.90;999.90;;;10.60;99.90;;;;;;4993160;28;20513;-69
2022/11/16 05:31:56;;;;;;;1999.90;999.90;;;10.60;99.90;;;;;;4992398;28;20465;-71
2022/11/16 05:34:23;;;;;;;1999.90;999.90;;;10.60;99.90;;;;;;4992934;28;20467;-69
2022/11/16 05:36:50;;;;;;;1999.90;999.90;;;10.60;99.90;;;;;;4992748;28;20526;-71
2022/11/16 05:39:18;;;;;;;1999.90;999.90;;;10.70;99.90;;;;;;4993492;28;20874;-69
2022/11/16 05:41:46;;;;;;;1999.90;999.90;;;10.60;99.90;;;;;;4992499;28;20461;-70
2022/11/16 05:44:13;;;;;;;1999.90;999.90;;;10.60;99.90;;;;;;4993110;28;20554;-69
2022/11/16 05:46:40;;;;;;;1999.90;999.90;;;10.50;99.90;;;;;;4992590;28;20482;-71
2022/11/16 05:49:10;;;;;;;1999.90;999.90;;;10.60;99.90;;;;;;4992524;28;20451;-68
2022/11/16 05:51:38;;;;;;;1999.90;999.90;;;10.60;99.90;;;;;;4992635;28;20796;-69
2022/11/16 05:54:05;;;;;;;1999.90;999.90;;;10.60;99.90;;;;;;4991976;28;20479;-69
2022/11/16 05:56:34;;;;;;;1999.90;999.90;;;10.50;99.90;;;;;;4992620;28;20640;-69
2022/11/16 05:59:02;;;;;;;1999.90;999.90;;;10.50;99.90;;;;;;4979269;28;20462;-71
2022/11/16 06:01:29;;;;;;;1999.90;999.90;;;10.50;99.90;;;;;;4981957;28;20459;-70
2022/11/16 06:03:58;;;;;;;1999.90;999.90;;;10.50;99.90;;;;;;4982968;28;20474;-69
2022/11/16 06:06:25;;;;;;;1999.90;999.90;;;10.50;99.90;;;;;;4981629;28;20870;-71
2022/11/16 06:08:52;;;;;;;1999.90;999.90;;;10.40;99.90;;;;;;4983487;28;20454;-70
2022/11/16 06:11:19;;;;;;;1999.90;999.90;;;10.40;99.90;;;;;;4983014;28;20451;-69
2022/11/16 06:13:46;;;;;;;1999.90;999.90;;;10.30;99.90;;;;;;4979119;28;20471;-70
2022/11/16 06:16:14;;;;;;;1999.90;999.90;;;10.20;99.90;;;;;;4980731;28;20454;-69
2022/11/16 06:18:42;;;;;;;1999.90;999.90;;;10.20;99.90;;;;;;4982564;28;20459;-70
2022/11/16 06:21:10;;;;;;;1999.90;999.90;;;10.20;99.90;;;;;;4988692;28;20447;-71
2022/11/16 06:23:37;;;;;;;1999.90;999.90;;;10.20;99.90;;;;;;4990276;28;20467;-66
2022/11/16 06:26:05;;;;;;;1999.90;999.90;;;10.20;99.90;;;;;;4989822;28;20481;-70
2022/11/16 06:28:32;;;;;;;1999.90;999.90;;;10.20;99.90;;;;;;4989740;28;20458;-71
2022/11/16 06:30:59;;;;;;;1999.90;999.90;;;10.30;99.90;;;;;;4991049;28;20457;-71
2022/11/16 06:33:27;;;;;;;1999.90;999.90;;;10.30;99.90;;;;;;4991882;28;20471;-72
2022/11/16 06:35:54;;;;;;;1999.90;999.90;;;10.30;99.90;;;;;;4992743;28;20446;-70
2022/11/16 06:38:22;;;;;;;1999.90;999.90;;;10.40;99.90;;;;;;4992482;28;20808;-69
2022/11/16 06:40:51;;;;;;;1999.90;999.90;;;10.50;99.90;;;;;;4989411;28;20462;-69
2022/11/16 06:43:18;;;;;;;1999.90;999.90;;;10.50;99.90;;;;;;4986120;28;21183;-68
2022/11/16 06:45:49;;;;;;;1999.90;999.90;;;10.50;99.90;;;;;;4991059;28;20859;-69
2022/11/16 06:48:16;;;;;;;1999.90;999.90;;;10.50;99.90;;;;;;4990662;28;20553;-67
2022/11/16 06:50:44;;;;;;;1999.90;999.90;;;10.50;99.90;;;;;;4990882;28;20843;-67
2022/11/16 06:53:11;;;;;;;1999.90;999.90;;;10.60;99.90;;;;;;4990836;28;20467;-67
2022/11/16 06:55:38;;;;;;;1999.90;999.90;;;10.60;99.90;;;;;;4990671;28;20450;-68
2022/11/16 06:58:05;;;;;;;1999.90;999.90;;;10.70;99.90;;;;;;4991364;28;20466;-69
2022/11/16 07:00:32;;;;;;;1999.90;999.90;;;10.70;99.90;;;;;;4990973;28;20958;-69
2022/11/16 07:02:59;;;;;;;1999.90;999.90;;;10.70;99.90;;;;;;4990597;28;20447;-67
2022/11/16 07:05:25;;;;;;;1999.90;999.90;;;10.70;99.90;;;;;;4990816;28;20846;-68
2022/11/16 07:07:55;;;;;;;1999.90;999.90;;;10.80;99.90;;;;;;4991069;28;20845;-69
2022/11/16 07:10:22;;;;;;;1999.90;999.90;;;10.80;99.90;;;;;;4990954;28;20447;-69
2022/11/16 07:12:49;;;;;;;1999.90;999.90;;;10.80;99.90;;;;;;4990559;28;20451;-68
2022/11/16 07:15:16;;;;;;;1999.90;999.90;;;10.80;99.90;;;;;;4991198;28;20483;-69
2022/11/16 07:17:43;;;;;;;1999.90;999.90;;;10.80;99.90;;;;;;4990936;28;20458;-68
2022/11/16 07:20:11;;;;;;;1999.90;999.90;;;10.80;99.90;;;;;;4990900;28;20562;-69
2022/11/16 07:22:38;;;;;;;1999.90;999.90;;;10.90;99.90;;;;;;4990180;28;20455;-68
2022/11/16 07:25:08;;;;;;;1999.90;999.90;;;10.90;99.90;;;;;;4990885;28;20528;-66
2022/11/16 07:27:35;;;;;;;1999.90;999.90;;;10.90;99.90;;;;;;4989815;28;20482;-69
2022/11/16 07:30:01;;;;;;;1999.90;999.90;;;10.90;99.90;;;;;;4990520;28;20457;-67
2022/11/16 07:32:29;;;;;;;1999.90;999.90;;;10.90;99.90;;;;;;4990183;28;20451;-68
2022/11/16 07:34:56;;;;;;;1999.90;999.90;;;11.00;99.90;;;;;;4990609;28;20559;-67
2022/11/16 07:37:23;;;;;;;1999.90;999.90;;;11.00;99.90;;;;;;4990575;28;20451;-69
2022/11/16 07:39:50;;;;;;;1999.90;999.90;;;11.00;99.90;;;;;;4990482;28;20446;-66
2022/11/16 07:42:18;;;;;;;1999.90;999.90;;;11.00;99.90;;;;;;4990454;28;20447;-65
2022/11/16 07:44:45;;;;;;;1999.90;999.90;;;11.10;99.90;;;;;;4990006;28;20988;-66
2022/11/16 07:47:11;;;;;;;1999.90;999.90;;;11.10;99.90;;;;;;4990622;28;21014;-68
2022/11/16 07:49:38;;;;;;;1999.90;999.90;;;11.20;99.90;;;;;;4990733;28;20477;-67
2022/11/16 07:52:07;;;;;;;1999.90;999.90;;;11.30;99.90;;;;;;4990390;28;20451;-67
2022/11/16 07:54:34;;;;;;;1999.90;999.90;;;11.40;99.90;;;;;;4990132;28;20976;-67
2022/11/16 07:57:01;;;;;;;1999.90;999.90;;;11.40;99.90;;;;;;4990419;28;20457;-67
2022/11/16 07:59:29;;;;;;;1999.90;999.90;;;11.50;99.90;;;;;;4990557;28;20453;-69
2022/11/16 08:01:56;;;;;;;1999.90;999.90;;;11.60;99.90;;;;;;4989687;28;20447;-69
2022/11/16 08:04:23;;;;;;;1999.90;999.90;;;11.60;99.90;;;;;;4990125;28;20470;-68
2022/11/16 08:06:50;;;;;;;1999.90;999.90;;;11.70;99.90;;;;;;4989975;28;20486;-67
2022/11/16 08:09:17;;;;;;;1999.90;999.90;;;11.70;99.90;;;;;;4990186;28;20972;-66
2022/11/16 08:11:44;;;;;;;1999.90;999.90;;;11.70;99.90;;;;;;4989705;28;20445;-67
2022/11/16 08:14:11;;;;;;;1999.90;999.90;;;11.80;99.90;;;;;;4990260;28;20562;-71
2022/11/16 08:16:49;;;;;;;1999.90;999.90;;;11.80;99.90;;;;;;4989791;28;20446;-70
2022/11/16 08:19:16;;;;;;;1999.90;999.90;;;11.80;99.90;;;;;;4990399;28;20461;-71
2022/11/16 08:21:44;;;;;;;1999.90;999.90;;;11.70;99.90;;;;;;4989527;28;20904;-71
2022/11/16 08:24:11;;;;;;;1999.90;999.90;;;11.70;99.90;;;;;;4990229;28;20489;-70
2022/11/16 08:26:38;;;;;;;1999.90;999.90;;;11.70;99.90;;;;;;4990299;28;20478;-67
2022/11/16 08:29:05;;;;;;;1999.90;999.90;;;11.70;99.90;;;;;;4990062;28;20443;-68
2022/11/16 08:31:31;;;;;;;1999.90;999.90;;;11.80;99.90;;;;;;4989889;28;20451;-67
2022/11/16 08:34:01;;;;;;;1999.90;999.90;;;11.90;99.90;;;;;;4989723;28;20480;-68
2022/11/16 08:36:28;;;;;;;1999.90;999.90;;;12.00;99.90;;;;;;4990077;28;20439;-68
2022/11/16 08:38:55;;;;;;;1999.90;999.90;;;12.00;99.90;;;;;;4989764;28;20451;-69
2022/11/16 08:41:22;;;;;;;1999.90;999.90;;;12.10;99.90;;;;;;4993917;28;20446;-70
2022/11/16 08:43:49;;;;;;;1999.90;999.90;;;12.20;99.90;;;;;;4993175;28;20481;-67
2022/11/16 08:46:16;;;;;;;1999.90;999.90;;;12.30;99.90;;;;;;4993574;28;20497;-69
2022/11/16 08:48:43;;;;;;;1999.90;999.90;;;12.30;99.90;;;;;;4993857;28;20462;-70
2022/11/16 08:51:13;;;;;;;1999.90;999.90;;;12.40;99.90;;;;;;4990237;28;20454;-68
2022/11/16 08:53:40;;;;;;;1999.90;999.90;;;12.60;99.90;;;;;;4991635;28;20486;-66
2022/11/16 08:56:10;;;;;;;1999.90;999.90;;;12.70;99.90;;;;;;4992844;28;21155;-68
2022/11/16 08:58:37;;;;;;;1999.90;999.90;;;12.70;99.90;;;;;;4992907;28;20450;-67
2022/11/16 09:01:08;;;;;;;1999.90;999.90;;;12.80;99.90;;;;;;4993051;28;20450;-67
2022/11/16 09:03:36;;;;;;;1999.90;999.90;;;12.80;99.90;;;;;;4993404;28;20470;-67
2022/11/16 09:06:03;;;;;;;1999.90;999.90;;;12.90;99.90;;;;;;4993283;28;20439;-71
2022/11/16 09:08:32;;;;;;;1999.90;999.90;;;13.00;99.90;;;;;;4992478;28;20493;-70
2022/11/16 09:10:59;;;;;;;1999.90;999.90;;;13.10;99.90;;;;;;4983640;28;20938;-70
2022/11/16 09:13:26;;;;;;;1999.90;999.90;;;13.20;99.90;;;;;;4991589;28;20474;-71
2022/11/16 09:15:57;;;;;;;1999.90;999.90;;;13.20;99.90;;;;;;4992631;28;20454;-68
2022/11/16 09:18:24;;;;;;;1999.90;999.90;;;13.20;99.90;;;;;;4987812;28;20440;-67
2022/11/16 09:20:50;;;;;;;1999.90;999.90;;;13.10;99.90;;;;;;4988024;28;20457;-70
2022/11/16 09:23:17;;;;;;;1999.90;999.90;;;13.00;99.90;;;;;;4988091;28;20466;-70
2022/11/16 09:25:47;;;;;;;1999.90;999.90;;;13.00;99.90;;;;;;4991757;28;20493;-69
2022/11/16 09:28:14;;;;;;;1999.90;999.90;;;13.00;99.90;;;;;;4989189;28;20522;-70
2022/11/16 09:30:41;;;;;;;1999.90;999.90;;;13.00;99.90;;;;;;4990576;28;20457;-68
2022/11/16 09:33:08;;;;;;;1999.90;999.90;;;13.10;99.90;;;;;;4991099;28;20492;-70
2022/11/16 09:35:35;;;;;;;1999.90;999.90;;;13.30;99.90;;;;;;4992169;28;20458;-67
2022/11/16 09:38:02;;;;;;;1999.90;999.90;;;13.30;99.90;;;;;;4993450;28;21118;-67
2022/11/16 09:40:33;;;;;;;1999.90;999.90;;;13.30;99.90;;;;;;4992295;28;20453;-70
2022/11/16 09:43:09;;;;;;;1999.90;999.90;;;13.50;99.90;;;;;;4992890;28;20561;-67
2022/11/16 09:45:42;;;;;;;1999.90;999.90;;;13.70;99.90;;;;;;4992615;28;20545;-69
2022/11/16 09:48:13;;;;;;;1999.90;999.90;;;13.90;99.90;;;;;;4988659;28;20496;-66
2022/11/16 09:50:44;;;;;;;1999.90;999.90;;;14.00;99.90;;;;;;4986481;28;20542;-68
2022/11/16 09:53:25;;;;;;;1999.90;999.90;;;14.00;99.90;;;;;;4991345;28;20480;-68
2022/11/16 09:55:54;;;;;;;1999.90;999.90;;;14.40;99.90;;;;;;4991740;28;20446;-67
2022/11/16 09:58:28;;;;;;;1999.90;999.90;;;14.70;99.90;;;;;;4989871;28;20443;-70
2022/11/16 10:01:00;;;;;;;1999.90;999.90;;;14.80;99.90;;;;;;4992265;28;20534;-71
2022/11/16 10:03:31;;;;;;;1999.90;999.90;;;14.70;99.90;;;;;;4991685;28;20474;-67
2022/11/16 10:06:02;;;;;;;1999.90;999.90;;;14.70;99.90;;;;;;4990059;28;20443;-68
2022/11/16 10:08:40;;;;;;;1999.90;999.90;;;14.80;99.90;;;;;;4991561;28;20865;-72
2022/11/16 10:11:31;;;;;;;1999.90;999.90;;;14.90;99.90;;;;;;4991845;28;21035;-71
2022/11/16 10:14:12;;;;;;;1999.90;999.90;;;14.80;99.90;;;;;;4989011;28;20474;-68
2022/11/16 10:16:47;;;;;;;1999.90;999.90;;;14.80;99.90;;;;;;4989518;28;20466;-67
2022/11/16 10:19:22;;;;;;;1999.90;999.90;;;14.70;99.90;;;;;;4991682;28;20458;-68
2022/11/16 10:21:58;;;;;;;1999.90;999.90;;;14.60;99.90;;;;;;4991784;28;20534;-67
2022/11/16 10:24:32;;;;;;;1999.90;999.90;;;14.50;99.90;;;;;;4989537;28;20489;-66
2022/11/16 10:27:22;;;;;;;1999.90;999.90;;;14.90;99.90;;;;;;4991659;28;20485;-67
2022/11/16 10:29:57;;;;;;;1999.90;999.90;;;16.10;99.90;;;;;;4982722;28;20981;-67
2022/11/16 10:32:27;;;;;;;1999.90;999.90;;;16.80;99.90;;;;;;4991709;28;20443;-67
2022/11/16 10:34:55;;;;;;;1999.90;999.90;;;17.10;99.90;;;;;;4991361;28;20471;-69
2022/11/16 10:37:28;;;;;;;1999.90;999.90;;;17.10;99.90;;;;;;4987066;28;20941;-69
2022/11/16 10:39:55;;;;;;;1999.90;999.90;;;17.00;99.90;;;;;;4991640;28;20443;-71
2022/11/16 10:42:28;;;;;;;1999.90;999.90;;;17.00;99.90;;;;;;4991130;28;20454;-67
2022/11/16 10:45:04;;;;;;;1999.90;999.90;;;16.80;99.90;;;;;;4990994;28;20451;-71
2022/11/16 10:47:41;;;;;;;1999.90;999.90;;;16.50;99.90;;;;;;4988939;28;20493;-69
2022/11/16 10:50:24;;;;;;;1999.90;999.90;;;16.50;99.90;;;;;;4988997;28;20538;-65
2022/11/16 10:52:51;;;;;;;1999.90;999.90;;;16.70;99.90;;;;;;4988557;28;20450;-66
2022/11/16 10:55:20;;;;;;;1999.90;999.90;;;16.80;99.90;;;;;;4990991;28;20471;-66
2022/11/16 10:57:58;;;;;;;1999.90;999.90;;;16.70;99.90;;;;;;4990560;28;20435;-66
2022/11/16 11:00:38;;;;;;;1999.90;999.90;;;16.50;99.90;;;;;;4988582;28;20438;-66
2022/11/16 11:03:05;;;;;;;1999.90;999.90;;;16.30;99.90;;;;;;4988208;28;20497;-68
2022/11/16 11:05:34;;;;;;;1999.90;999.90;;;15.80;99.90;;;;;;4988394;28;20542;-65
2022/11/16 11:08:03;;;;;;;1999.90;999.90;;;15.50;99.90;;;;;;4989943;28;20482;-70
2022/11/16 11:10:32;;;;;;;1999.90;999.90;;;15.10;99.90;;;;;;4990859;28;20927;-68
2022/11/16 11:13:22;;;;;;;1999.90;999.90;;;14.60;99.90;;;;;;4990221;28;20451;-69
2022/11/16 11:15:50;;;;;;;1999.90;999.90;;;14.30;99.90;;;;;;4980198;28;20450;-67
2022/11/16 11:18:28;;;;;;;1999.90;999.90;;;14.30;99.90;;;;;;4990950;28;20449;-66
2022/11/16 11:21:07;;;;;;;1999.90;999.90;;;14.40;99.90;;;;;;4988841;28;20450;-70
2022/11/16 11:23:42;;;;;;;1999.90;999.90;;;14.60;99.90;;;;;;4988664;28;20462;-69
2022/11/16 11:26:33;;;;;;;1999.90;999.90;;;14.70;99.90;;;;;;4988116;28;20942;-68
2022/11/16 11:29:16;;;;;;;1999.90;999.90;;;14.70;99.90;;;;;;4990990;28;20879;-70
2022/11/16 11:31:47;;;;;;;1999.90;999.90;;;14.70;99.90;;;;;;4990273;28;20461;-68
2022/11/16 11:34:20;;;;;;;1999.90;999.90;;;14.70;99.90;;;;;;4986883;28;21093;-67
2022/11/16 11:36:50;;;;;;;1999.90;999.90;;;14.60;99.90;;;;;;4987058;28;20586;-67
2022/11/16 11:39:35;;;;;;;1999.90;999.90;;;14.40;99.90;;;;;;4988746;28;20451;-70
2022/11/16 11:42:20;;;;;;;1999.90;999.90;;;14.00;99.90;;;;;;4988570;28;20435;-68
2022/11/16 11:44:55;;;;;;;1999.90;999.90;;;13.80;99.90;;;;;;4989735;28;20905;-70
2022/11/16 11:47:40;;;;;;;1999.90;999.90;;;13.60;99.90;;;;;;4991264;28;20482;-67
2022/11/16 11:50:16;;;;;;;1999.90;999.90;;;13.40;99.90;;;;;;4991275;28;21039;-66
2022/11/16 11:52:52;;;;;;;1999.90;999.90;;;13.30;99.90;;;;;;4988657;28;20524;-67
2022/11/16 11:55:19;;;;;;;1999.90;999.90;;;13.30;99.90;;;;;;4990336;28;20951;-67
2022/11/16 11:57:52;;;;;;;1999.90;999.90;;;13.30;99.90;;;;;;4990332;28;20450;-68
2022/11/16 12:00:19;;;;;;;1999.90;999.90;;;13.40;99.90;;;;;;4990598;28;20452;-67
2022/11/16 12:03:21;;;;;;;1999.90;999.90;;;13.40;99.90;;;;;;4989951;28;20457;-68
2022/11/16 12:06:04;;;;;;;1999.90;999.90;;;13.50;99.90;;;;;;4979865;28;20465;-68
2022/11/16 12:08:47;;;;;;;1999.90;999.90;;;13.70;99.90;;;;;;4989634;28;20486;-67
2022/11/16 12:11:21;;;;;;;1999.90;999.90;;;13.90;99.90;;;;;;4990020;28;20446;-66
2022/11/16 12:14:08;;;;;;;1999.90;999.90;;;14.20;99.90;;;;;;4988809;28;20474;-66
2022/11/16 12:16:43;;;;;;;1999.90;999.90;;;14.60;99.90;;;;;;4991376;28;20447;-70
2022/11/16 12:19:28;;;;;;;1999.90;999.90;;;15.00;99.90;;;;;;4993443;28;20826;-66
2022/11/16 12:22:09;;;;;;;1999.90;999.90;;;15.20;99.90;;;;;;4993599;28;20435;-68
2022/11/16 12:24:47;;;;;;;1999.90;999.90;;;15.20;99.90;;;;;;4993575;28;20822;-70
2022/11/16 12:27:27;;;;;;;1999.90;999.90;;;15.40;99.90;;;;;;4994020;28;20458;-67
2022/11/16 12:30:02;;;;;;;1999.90;999.90;;;15.50;99.90;;;;;;4994325;28;20468;-70
2022/11/16 12:32:51;;;;;;;1999.90;999.90;;;15.40;99.90;;;;;;4994073;28;20827;-66
2022/11/16 12:35:51;;;;;;;1999.90;999.90;;;15.50;99.90;;;;;;4994203;28;20477;-70
2022/11/16 12:38:43;;;;;;;1999.90;999.90;;;15.90;99.90;;;;;;4979489;28;20453;-67
2022/11/16 12:41:46;;;;;;;1999.90;999.90;;;16.50;99.90;;;;;;4993194;28;20450;-68
2022/11/16 12:44:20;;;;;;;1999.90;999.90;;;16.80;99.90;;;;;;4992083;28;21037;-68
2022/11/16 12:46:59;;;;;;;1999.90;999.90;;;17.10;99.90;;;;;;4993638;28;20443;-67
2022/11/16 12:49:46;;;;;;;1999.90;999.90;;;17.20;99.90;;;;;;4992475;28;20474;-67
2022/11/16 12:52:32;;;;;;;1999.90;999.90;;;17.30;99.90;;;;;;4993181;28;20975;-67
2022/11/16 12:55:14;;;;;;;1999.90;999.90;;;17.40;99.90;;;;;;4993750;28;20565;-66
2022/11/16 12:57:50;;;;;;;1999.90;999.90;;;17.50;99.90;;;;;;4991702;28;20463;-67
2022/11/16 13:00:18;;;;;;;1999.90;999.90;;;17.60;99.90;;;;;;4990169;28;20446;-68